Govans, Maryland
Current Conditions -  °F | °C
As of 5:21 AM on Sunday 26 Oct 2014 (Local Time) from KMTN Reporting Station
Clear Clear  
Wind Chill: 59°   Ceiling: Unl
Heat Index: 59°   Visibility: 10mi
Dew Point: 43°   Wind: 10mph
Humidity: 55%   Direction: 260°W
Pressure: 29.7"   Gusts: NA
Location:  39.3674°N, 76.6149°W
Report Text: KMTN 260921Z AUTO 26009KT 10SM CLR 15/06 A2970 RMK AO2
Loading
Personal Weather Stations






























Interactive Weather Map New forecast layout! Learn more

10-Day Weather Forecast

Advertisements
Track Severe Weather on mobile